Time;durP1;ratioP1;P1;durP2;ratioP2;P2;SDS_P1;SDS_P2;PMS_P1;PMS_P2;Temp;Humidity;BMP_temperature;BMP_pressure;BME280_temperature;BME280_humidity;BME280_pressure;Samples;Min_cycle;Max_cycle;Signal;HPM_P1;HPM_P2
2021/05/05 00:01:22;;;;;;;16.23;8.45;;;7.40;59.10;;;;;;5020706;28;20062;-83
2021/05/05 00:03:47;;;;;;;15.02;7.88;;;7.40;59.20;;;;;;4974296;28;20031;-83
2021/05/05 00:06:15;;;;;;;14.05;7.75;;;7.40;59.30;;;;;;4975272;28;20081;-83
2021/05/05 00:08:41;;;;;;;16.13;8.70;;;7.40;59.30;;;;;;5006442;28;20482;-84
2021/05/05 00:11:07;;;;;;;12.20;8.35;;;7.40;59.30;;;;;;4974799;28;20062;-82
2021/05/05 00:13:33;;;;;;;10.45;7.40;;;7.40;59.30;;;;;;4975732;28;20050;-83
2021/05/05 00:15:59;;;;;;;10.85;7.38;;;7.40;59.30;;;;;;5009665;28;20038;-82
2021/05/05 00:18:25;;;;;;;14.57;7.95;;;7.40;59.40;;;;;;4984572;28;20073;-82
2021/05/05 00:20:51;;;;;;;11.88;7.55;;;7.40;59.40;;;;;;4978643;28;20031;-82
2021/05/05 00:23:17;;;;;;;11.70;7.20;;;7.40;59.30;;;;;;4975765;28;20546;-83
2021/05/05 00:25:42;;;;;;;12.75;7.28;;;7.40;59.30;;;;;;4979112;28;20470;-83
2021/05/05 00:28:08;;;;;;;11.38;6.13;;;7.40;59.30;;;;;;4979645;28;20051;-83
2021/05/05 00:30:35;;;;;;;10.23;6.72;;;7.40;59.60;;;;;;4982872;28;20027;-83
2021/05/05 00:33:01;;;;;;;11.85;6.82;;;7.40;59.40;;;;;;4978177;28;20379;-83
2021/05/05 00:35:27;;;;;;;12.30;6.40;;;7.30;59.40;;;;;;4978211;28;20019;-84
2021/05/05 00:37:52;;;;;;;12.07;6.22;;;7.30;60.00;;;;;;4977635;28;20030;-82
2021/05/05 00:40:18;;;;;;;11.32;6.30;;;7.30;59.50;;;;;;5009488;28;20026;-83
2021/05/05 00:42:45;;;;;;;8.88;6.20;;;7.30;59.50;;;;;;4977882;28;20102;-83
2021/05/05 00:45:14;;;;;;;9.57;6.03;;;7.30;59.60;;;;;;4977694;28;20101;-82
2021/05/05 00:47:41;;;;;;;9.55;5.78;;;7.20;59.60;;;;;;4977803;28;20034;-82
2021/05/05 00:50:09;;;;;;;10.48;5.80;;;7.30;59.60;;;;;;5009054;28;20039;-82
2021/05/05 00:52:35;;;;;;;9.07;5.55;;;7.20;59.60;;;;;;4978475;28;20030;-82
2021/05/05 00:55:01;;;;;;;8.55;5.70;;;7.20;59.60;;;;;;4978126;28;20022;-82
2021/05/05 00:57:27;;;;;;;11.73;5.60;;;7.20;59.70;;;;;;4982680;28;20026;-81
2021/05/05 00:59:53;;;;;;;7.55;5.70;;;7.20;59.80;;;;;;4980326;28;20466;-82
2021/05/05 01:02:20;;;;;;;11.80;6.30;;;7.20;59.80;;;;;;4977550;28;20029;-83
2021/05/05 01:04:45;;;;;;;9.10;5.70;;;7.20;59.90;;;;;;5009081;28;20029;-81
2021/05/05 01:07:12;;;;;;;9.63;6.20;;;7.20;60.00;;;;;;4977136;28;20031;-82
2021/05/05 01:09:42;;;;;;;8.75;5.90;;;7.20;60.00;;;;;;4976864;28;20474;-83
2021/05/05 01:12:08;;;;;;;8.32;5.68;;;7.20;60.10;;;;;;5008261;28;20117;-83
2021/05/05 01:14:34;;;;;;;7.85;5.68;;;7.10;60.10;;;;;;5008411;28;20026;-83
2021/05/05 01:17:00;;;;;;;11.63;6.60;;;7.10;60.20;;;;;;4977282;28;20031;-83
2021/05/05 01:19:25;;;;;;;9.93;5.88;;;7.10;60.20;;;;;;5008189;28;20026;-83
2021/05/05 01:21:51;;;;;;;14.68;6.30;;;7.10;60.30;;;;;;4977023;28;20105;-83
2021/05/05 01:24:17;;;;;;;8.82;6.28;;;7.10;60.30;;;;;;4976547;28;20061;-83
2021/05/05 01:26:42;;;;;;;8.63;6.55;;;7.10;60.40;;;;;;5008248;28;20047;-81
2021/05/05 01:29:09;;;;;;;8.98;6.50;;;7.10;60.50;;;;;;4975706;28;20481;-82
2021/05/05 01:31:35;;;;;;;10.88;6.57;;;7.10;60.60;;;;;;4976539;28;20481;-81
2021/05/05 01:34:01;;;;;;;10.32;6.68;;;7.00;60.60;;;;;;4977065;28;20030;-81
2021/05/05 01:36:32;;;;;;;12.30;6.80;;;7.00;60.70;;;;;;4983887;28;20058;-82
2021/05/05 01:38:58;;;;;;;10.13;6.40;;;7.00;60.80;;;;;;5012715;28;20150;-81
2021/05/05 01:41:24;;;;;;;12.23;7.07;;;7.00;60.90;;;;;;5007098;28;20035;-80
2021/05/05 01:43:50;;;;;;;8.95;6.38;;;6.90;61.00;;;;;;5007653;28;20045;-80
2021/05/05 01:46:21;;;;;;;15.07;7.00;;;6.90;61.10;;;;;;4975910;28;20023;-82
2021/05/05 01:48:47;;;;;;;10.80;7.60;;;7.00;61.30;;;;;;5007159;28;20038;-80
2021/05/05 01:51:14;;;;;;;20.27;8.95;;;6.90;61.30;;;;;;4975327;28;20031;-80
2021/05/05 01:53:40;;;;;;;15.13;7.60;;;6.90;61.40;;;;;;4974881;28;20066;-75
2021/05/05 01:56:06;;;;;;;19.35;8.52;;;6.90;61.50;;;;;;4974722;28;20054;-75
2021/05/05 01:58:33;;;;;;;15.15;9.20;;;6.90;61.60;;;;;;4974551;28;20031;-75
2021/05/05 02:01:00;;;;;;;13.05;9.05;;;6.80;61.60;;;;;;4975283;28;20098;-84
2021/05/05 02:03:26;;;;;;;14.52;8.65;;;6.80;61.70;;;;;;5006586;28;20386;-78
2021/05/05 02:05:52;;;;;;;10.70;7.63;;;6.80;61.80;;;;;;4975820;28;20031;-82
2021/05/05 02:08:19;;;;;;;10.43;7.55;;;6.80;61.90;;;;;;4975734;28;20031;-82
2021/05/05 02:10:46;;;;;;;11.70;7.47;;;6.80;62.00;;;;;;4975253;28;20023;-80
2021/05/05 02:13:12;;;;;;;8.40;6.68;;;6.80;62.10;;;;;;4974248;28;20117;-82
2021/05/05 02:15:38;;;;;;;9.30;6.95;;;6.80;62.20;;;;;;4974731;28;20030;-81
2021/05/05 02:18:06;;;;;;;12.90;7.15;;;6.70;62.20;;;;;;5006235;28;20031;-81
2021/05/05 02:20:32;;;;;;;10.60;7.40;;;6.70;62.30;;;;;;4975459;28;20019;-81
2021/05/05 02:22:58;;;;;;;11.77;7.40;;;6.80;62.50;;;;;;4976305;28;20090;-81
2021/05/05 02:25:24;;;;;;;15.30;7.88;;;6.80;62.50;;;;;;4976414;28;20050;-81
2021/05/05 02:27:50;;;;;;;11.85;8.40;;;6.80;62.60;;;;;;4976679;28;20055;-81
2021/05/05 02:30:17;;;;;;;9.90;7.25;;;6.80;62.80;;;;;;5007318;28;20030;-82
2021/05/05 02:32:44;;;;;;;14.23;8.50;;;6.80;62.80;;;;;;4975946;28;20536;-81
2021/05/05 02:35:11;;;;;;;13.27;8.90;;;6.80;62.90;;;;;;4975255;28;20023;-83
2021/05/05 02:37:37;;;;;;;16.70;9.35;;;6.90;63.10;;;;;;5006595;28;20022;-82
2021/05/05 02:40:08;;;;;;;16.73;9.30;;;7.10;63.50;;;;;;4975604;28;20081;-81
2021/05/05 02:42:34;;;;;;;15.82;9.60;;;7.40;63.90;;;;;;4975005;28;20033;-81
2021/05/05 02:45:00;;;;;;;16.25;8.68;;;8.00;63.60;;;;;;5006142;28;20489;-81
2021/05/05 02:47:26;;;;;;;15.98;8.70;;;8.60;62.80;;;;;;5006245;28;20589;-81
2021/05/05 02:49:52;;;;;;;13.75;8.15;;;9.20;62.10;;;;;;4974994;28;20110;-82
2021/05/05 02:52:18;;;;;;;12.82;8.20;;;9.80;61.20;;;;;;4974470;28;20034;-81
2021/05/05 02:54:45;;;;;;;13.23;7.20;;;10.60;60.20;;;;;;4975600;28;20037;-81
2021/05/05 02:57:11;;;;;;;13.07;7.68;;;11.40;59.00;;;;;;5011263;28;20485;-81
2021/05/05 02:59:37;;;;;;;11.55;7.43;;;12.20;57.60;;;;;;5007128;28;20077;-81
2021/05/05 03:02:05;;;;;;;13.20;7.57;;;13.00;56.10;;;;;;5005857;28;20389;-82
2021/05/05 03:04:30;;;;;;;10.65;7.88;;;13.70;54.60;;;;;;4972423;28;20066;-81
2021/05/05 03:06:56;;;;;;;10.43;7.22;;;14.40;53.20;;;;;;4974897;28;20065;-81
2021/05/05 03:09:26;;;;;;;9.27;6.80;;;15.10;52.00;;;;;;4974161;28;20418;-82
2021/05/05 03:11:59;;;;;;;9.80;7.20;;;15.70;50.20;;;;;;4972870;28;20169;-81
2021/05/05 03:14:26;;;;;;;15.65;8.38;;;16.10;48.60;;;;;;4973943;28;20068;-81
2021/05/05 03:16:56;;;;;;;13.60;8.02;;;15.90;47.80;;;;;;4973707;28;20102;-81
2021/05/05 03:19:22;;;;;;;10.45;7.97;;;15.40;47.30;;;;;;4973807;28;20146;-81
2021/05/05 03:21:48;;;;;;;10.43;7.95;;;15.00;47.70;;;;;;4973963;28;20035;-82
2021/05/05 03:24:14;;;;;;;10.20;7.80;;;14.60;48.00;;;;;;4974029;28;20034;-82
2021/05/05 03:26:40;;;;;;;17.42;8.50;;;14.60;49.00;;;;;;4973976;28;20051;-82
2021/05/05 03:29:05;;;;;;;12.43;8.70;;;15.00;49.00;;;;;;4974802;28;20067;-82
2021/05/05 03:31:33;;;;;;;14.77;7.95;;;15.50;49.00;;;;;;4975876;28;20070;-83
2021/05/05 03:33:59;;;;;;;11.57;8.20;;;16.60;48.40;;;;;;4975325;28;20019;-82
2021/05/05 03:36:25;;;;;;;11.75;8.10;;;17.80;47.30;;;;;;4974719;28;20019;-82
2021/05/05 03:38:51;;;;;;;17.90;8.35;;;19.00;45.90;;;;;;4973999;28;20462;-83
2021/05/05 03:41:16;;;;;;;14.00;8.30;;;20.00;44.40;;;;;;4973507;28;20031;-82
2021/05/05 03:43:42;;;;;;;11.38;7.15;;;20.90;43.00;;;;;;4973490;28;20429;-82
2021/05/05 03:46:08;;;;;;;11.23;7.40;;;21.70;41.70;;;;;;4973316;28;20027;-82
2021/05/05 03:48:34;;;;;;;14.07;7.35;;;22.40;40.60;;;;;;4973448;28;20031;-82
2021/05/05 03:51:00;;;;;;;11.98;7.25;;;23.10;39.70;;;;;;4973566;28;20130;-82
2021/05/05 03:53:25;;;;;;;8.77;7.20;;;23.70;39.00;;;;;;4973383;28;20023;-81
2021/05/05 03:55:51;;;;;;;10.35;7.00;;;24.40;38.30;;;;;;4973964;28;20735;-81
2021/05/05 03:58:17;;;;;;;10.38;6.97;;;25.00;37.50;;;;;;4973713;28;20102;-82
2021/05/05 04:00:43;;;;;;;8.55;6.68;;;25.60;37.60;;;;;;4972942;28;20023;-82
2021/05/05 04:03:08;;;;;;;10.38;6.38;;;26.10;36.40;;;;;;4972066;28;20052;-81
2021/05/05 04:05:34;;;;;;;12.85;6.47;;;26.60;35.80;;;;;;4978713;28;20034;-82
2021/05/05 04:08:01;;;;;;;7.90;5.40;;;27.00;35.50;;;;;;4977556;28;20154;-82
2021/05/05 04:10:27;;;;;;;7.55;5.45;;;27.30;35.00;;;;;;4977055;28;20027;-83
2021/05/05 04:12:53;;;;;;;8.07;5.43;;;27.60;34.70;;;;;;4977764;28;20033;-83
2021/05/05 04:15:19;;;;;;;7.38;5.53;;;27.80;34.60;;;;;;4983071;28;20023;-84
2021/05/05 04:17:44;;;;;;;15.15;6.00;;;28.20;34.60;;;;;;4977693;28;20516;-84
2021/05/05 04:20:11;;;;;;;6.85;5.07;;;28.60;34.30;;;;;;4977906;28;20027;-82
2021/05/05 04:22:39;;;;;;;7.53;4.60;;;29.00;34.20;;;;;;5008116;28;20027;-81
2021/05/05 04:25:06;;;;;;;6.18;4.80;;;29.50;33.90;;;;;;5007937;28;20030;-82
2021/05/05 04:27:32;;;;;;;8.43;5.47;;;29.80;33.70;;;;;;5007509;28;20078;-83
2021/05/05 04:29:58;;;;;;;7.97;5.10;;;30.30;33.50;;;;;;4976345;28;20066;-83
2021/05/05 04:32:24;;;;;;;13.07;5.45;;;30.80;33.20;;;;;;4975898;28;20023;-83
2021/05/05 04:34:50;;;;;;;9.23;4.68;;;31.20;32.70;;;;;;4976421;28;20374;-82
2021/05/05 04:37:15;;;;;;;6.13;4.50;;;31.40;32.40;;;;;;4976614;28;20030;-82
2021/05/05 04:39:41;;;;;;;7.50;4.65;;;31.60;32.10;;;;;;4979714;28;20050;-83
2021/05/05 04:42:08;;;;;;;5.10;4.47;;;31.70;31.80;;;;;;4979600;28;20027;-82
2021/05/05 04:44:34;;;;;;;6.82;4.40;;;31.80;31.60;;;;;;4976734;28;20119;-83
2021/05/05 04:47:03;;;;;;;6.53;4.40;;;32.00;31.60;;;;;;4980406;28;20026;-82
2021/05/05 04:49:29;;;;;;;5.85;4.25;;;32.10;31.60;;;;;;4975504;28;20022;-81
2021/05/05 04:51:55;;;;;;;8.40;4.15;;;32.30;31.40;;;;;;5006829;28;20540;-82
2021/05/05 04:54:21;;;;;;;5.82;4.20;;;32.30;31.30;;;;;;4975245;28;20027;-82
2021/05/05 04:56:47;;;;;;;5.22;4.63;;;32.40;31.40;;;;;;4975598;28;20033;-82
2021/05/05 04:59:13;;;;;;;10.25;4.38;;;32.70;31.50;;;;;;4975844;28;20027;-82
2021/05/05 05:01:38;;;;;;;8.65;3.90;;;33.10;31.50;;;;;;4981374;28;20822;-84
2021/05/05 05:04:04;;;;;;;5.53;3.70;;;33.30;31.30;;;;;;4978654;28;20023;-84
2021/05/05 05:06:30;;;;;;;5.95;3.70;;;33.40;31.20;;;;;;4977094;28;20034;-83
2021/05/05 05:08:56;;;;;;;5.60;3.53;;;33.60;31.20;;;;;;5007932;28;20081;-84
2021/05/05 05:11:25;;;;;;;7.05;3.40;;;33.80;31.00;;;;;;4977355;28;20042;-85
2021/05/05 05:13:53;;;;;;;8.40;3.53;;;34.00;30.60;;;;;;4977413;28;20031;-86
2021/05/05 05:16:19;;;;;;;7.57;3.42;;;34.30;30.70;;;;;;5011480;28;20035;-84
2021/05/05 05:18:45;;;;;;;5.63;3.72;;;34.60;31.20;;;;;;5007901;28;20080;-84
2021/05/05 05:21:11;;;;;;;6.38;3.53;;;34.80;30.20;;;;;;4974686;28;20469;-79
2021/05/05 05:23:37;;;;;;;5.20;3.00;;;34.50;30.00;;;;;;4976923;28;20046;-88
2021/05/05 05:26:03;;;;;;;8.05;3.47;;;33.80;29.80;;;;;;4975355;28;20440;-83
2021/05/05 05:28:29;;;;;;;7.88;3.72;;;32.70;30.00;;;;;;4977200;28;20038;-85
2021/05/05 05:30:55;;;;;;;6.00;3.40;;;31.40;30.20;;;;;;4976799;28;20102;-84
2021/05/05 05:33:21;;;;;;;6.97;2.95;;;30.30;31.10;;;;;;4976016;28;20138;-86
2021/05/05 05:35:46;;;;;;;3.80;3.40;;;29.80;32.00;;;;;;4975835;28;20085;-85
2021/05/05 05:38:12;;;;;;;7.13;3.75;;;29.20;32.10;;;;;;5007064;28;20184;-85
2021/05/05 05:40:39;;;;;;;10.05;3.85;;;28.50;32.70;;;;;;4975629;28;20030;-85
2021/05/05 05:43:05;;;;;;;7.18;3.30;;;28.10;33.60;;;;;;4969840;28;20023;-86
2021/05/05 05:45:31;;;;;;;7.60;3.80;;;28.60;34.00;;;;;;4975938;28;20022;-82
2021/05/05 05:47:57;;;;;;;8.63;3.33;;;29.30;34.00;;;;;;4979345;28;20030;-86
2021/05/05 05:50:23;;;;;;;6.70;3.78;;;30.10;33.60;;;;;;4986888;28;20042;-85
2021/05/05 05:52:49;;;;;;;6.03;3.25;;;30.60;32.80;;;;;;4977075;28;20038;-85
2021/05/05 05:55:17;;;;;;;4.28;3.17;;;30.70;32.60;;;;;;4980344;28;20023;-84
2021/05/05 05:57:44;;;;;;;3.50;3.17;;;30.70;32.50;;;;;;4976820;28;20038;-85
2021/05/05 06:00:13;;;;;;;7.13;3.40;;;30.90;32.60;;;;;;4976973;28;20023;-86
2021/05/05 06:02:39;;;;;;;8.77;3.88;;;31.20;32.50;;;;;;5009358;28;20485;-85
2021/05/05 06:05:06;;;;;;;12.75;4.30;;;31.90;32.50;;;;;;4976877;28;20165;-85
2021/05/05 06:07:32;;;;;;;7.22;3.50;;;32.30;32.10;;;;;;5007706;28;20027;-84
2021/05/05 06:09:58;;;;;;;4.70;3.30;;;32.60;31.60;;;;;;4976012;28;20027;-83
2021/05/05 06:12:24;;;;;;;8.55;3.20;;;32.50;31.40;;;;;;4980989;28;20022;-84
2021/05/05 06:14:50;;;;;;;9.82;3.60;;;32.70;31.30;;;;;;4995226;28;20027;-84
2021/05/05 06:17:16;;;;;;;8.52;3.35;;;32.90;31.20;;;;;;4985944;28;20030;-84
2021/05/05 06:19:42;;;;;;;7.53;3.45;;;32.50;30.90;;;;;;5007612;28;20027;-84
2021/05/05 06:22:08;;;;;;;3.45;3.10;;;32.10;31.10;;;;;;5009860;28;20042;-83
2021/05/05 06:24:33;;;;;;;4.20;3.00;;;32.00;31.40;;;;;;5018959;28;20034;-84
2021/05/05 06:26:59;;;;;;;4.18;3.15;;;32.10;31.60;;;;;;5011141;28;20051;-80
2021/05/05 06:29:25;;;;;;;5.40;3.50;;;32.40;31.60;;;;;;4972661;28;20033;-77
2021/05/05 06:31:51;;;;;;;8.52;3.58;;;32.60;31.40;;;;;;4973901;28;20105;-82
2021/05/05 06:34:16;;;;;;;7.00;3.30;;;32.70;31.60;;;;;;5008371;28;20482;-89
2021/05/05 06:36:42;;;;;;;5.72;3.20;;;33.00;31.40;;;;;;4975969;28;20442;-81
2021/05/05 06:39:08;;;;;;;8.00;3.00;;;33.30;31.20;;;;;;4975409;28;20109;-83
2021/05/05 06:41:41;;;;;;;6.15;3.17;;;33.50;31.10;;;;;;4974946;28;20110;-85
2021/05/05 06:44:08;;;;;;;6.57;2.88;;;33.80;31.00;;;;;;4974258;28;20078;-83
2021/05/05 06:46:35;;;;;;;7.50;3.33;;;34.00;30.70;;;;;;4975212;28;20029;-80
2021/05/05 06:49:01;;;;;;;4.35;3.10;;;33.90;30.50;;;;;;4974579;28;20035;-80
2021/05/05 06:51:27;;;;;;;15.02;3.83;;;34.00;30.60;;;;;;4973339;28;20034;-80
2021/05/05 06:53:54;;;;;;;8.00;2.90;;;33.90;30.40;;;;;;5005084;28;20022;-80
2021/05/05 06:56:20;;;;;;;14.40;3.42;;;33.80;30.40;;;;;;4972429;28;20031;-81
2021/05/05 06:58:46;;;;;;;10.35;3.63;;;33.70;30.60;;;;;;5004514;28;20500;-80
2021/05/05 07:01:12;;;;;;;3.17;2.88;;;33.80;30.70;;;;;;4974493;28;20090;-80
2021/05/05 07:03:38;;;;;;;5.88;2.80;;;33.90;30.50;;;;;;4975337;28;20062;-82
2021/05/05 07:06:04;;;;;;;6.05;3.05;;;33.90;30.70;;;;;;4973935;28;20054;-81
2021/05/05 07:08:29;;;;;;;6.28;3.00;;;34.00;30.80;;;;;;5005802;28;20027;-80
2021/05/05 07:10:55;;;;;;;2.72;2.53;;;34.00;30.40;;;;;;4972845;28;20042;-78
2021/05/05 07:13:22;;;;;;;6.30;3.17;;;33.70;30.60;;;;;;4972921;28;20019;-79
2021/05/05 07:15:47;;;;;;;8.18;2.67;;;33.60;30.70;;;;;;4973000;28;20034;-79
2021/05/05 07:18:13;;;;;;;7.68;3.00;;;33.40;30.70;;;;;;5004347;28;20023;-81
2021/05/05 07:20:39;;;;;;;4.35;2.53;;;33.30;30.90;;;;;;5004748;28;20034;-80
2021/05/05 07:23:05;;;;;;;12.70;2.80;;;33.10;30.80;;;;;;5003622;28;20034;-82
2021/05/05 07:25:30;;;;;;;6.40;2.33;;;33.00;31.00;;;;;;4972574;28;20752;-82
2021/05/05 07:27:58;;;;;;;6.05;3.50;;;33.00;31.20;;;;;;4971883;28;20806;-81
2021/05/05 07:30:24;;;;;;;8.18;3.08;;;32.80;31.50;;;;;;4973258;28;20062;-82
2021/05/05 07:32:50;;;;;;;7.88;2.70;;;32.50;31.20;;;;;;4973423;28;20473;-82
2021/05/05 07:35:18;;;;;;;5.55;2.58;;;32.30;31.40;;;;;;5004588;28;20161;-84
2021/05/05 07:48:05;;;;;;;8.90;3.85;;;30.70;32.40;;;;;;4978191;28;20105;-84
2021/05/05 07:50:30;;;;;;;4.57;2.30;;;30.40;32.70;;;;;;4974839;28;20034;-82
2021/05/05 07:52:57;;;;;;;7.15;2.38;;;30.20;32.70;;;;;;4974160;28;20023;-81
2021/05/05 07:55:23;;;;;;;2.50;2.28;;;30.20;33.00;;;;;;4978327;28;20018;-78
2021/05/05 07:57:48;;;;;;;8.00;2.15;;;30.20;32.90;;;;;;4977149;28;20041;-82
2021/05/05 08:00:17;;;;;;;9.30;2.22;;;30.10;32.90;;;;;;4975699;28;20030;-84
2021/05/05 08:02:45;;;;;;;6.97;2.60;;;29.90;33.50;;;;;;4974941;28;20046;-81
2021/05/05 08:05:12;;;;;;;8.25;2.53;;;29.70;33.20;;;;;;4975809;28;20073;-80
2021/05/05 08:07:37;;;;;;;10.88;2.83;;;29.50;33.10;;;;;;4975929;28;20033;-78
2021/05/05 08:10:05;;;;;;;4.60;2.35;;;29.40;33.30;;;;;;4974354;28;20450;-79
2021/05/05 08:12:31;;;;;;;4.00;2.40;;;29.00;33.30;;;;;;4975381;28;20034;-78
2021/05/05 08:14:57;;;;;;;7.40;2.65;;;28.60;33.70;;;;;;4975696;28;20038;-80
2021/05/05 08:17:23;;;;;;;7.85;2.80;;;28.40;34.80;;;;;;4977227;28;20058;-76
2021/05/05 08:19:51;;;;;;;14.70;2.90;;;28.30;34.20;;;;;;4975681;28;20362;-82
2021/05/05 08:22:17;;;;;;;8.48;2.40;;;28.10;34.40;;;;;;4976116;28;20498;-84
2021/05/05 08:24:43;;;;;;;6.03;2.50;;;27.80;34.90;;;;;;4975735;28;20139;-81
2021/05/05 08:27:09;;;;;;;6.53;2.30;;;27.70;35.10;;;;;;4975570;28;20106;-82
2021/05/05 08:29:35;;;;;;;6.72;2.42;;;27.60;35.00;;;;;;4975290;28;20105;-81
2021/05/05 08:32:02;;;;;;;12.57;3.88;;;27.60;35.40;;;;;;4975744;28;20137;-82
2021/05/05 08:34:28;;;;;;;4.95;2.30;;;27.60;35.40;;;;;;4975619;28;20030;-83
2021/05/05 08:36:55;;;;;;;11.20;3.10;;;27.50;35.40;;;;;;4975376;28;20117;-81
2021/05/05 08:39:21;;;;;;;11.75;2.83;;;27.30;35.40;;;;;;4976366;28;20031;-82
2021/05/05 08:41:47;;;;;;;8.32;2.83;;;27.20;35.60;;;;;;4975848;28;20023;-82
2021/05/05 08:44:14;;;;;;;3.90;2.63;;;27.00;35.70;;;;;;4976852;28;20169;-85
2021/05/05 08:46:42;;;;;;;7.88;2.83;;;26.90;35.80;;;;;;4976920;28;20031;-85
2021/05/05 08:49:40;;;;;;;7.57;2.88;;;26.70;35.90;;;;;;4977848;28;20077;-86
2021/05/05 08:52:20;;;;;;;7.38;2.97;;;26.50;36.30;;;;;;4969782;28;20035;-89
2021/05/05 08:54:47;;;;;;;18.10;2.92;;;26.50;36.40;;;;;;4989463;28;20034;-86
2021/05/05 08:57:17;;;;;;;15.35;3.03;;;26.50;36.50;;;;;;4982262;28;20031;-86
2021/05/05 08:59:43;;;;;;;5.18;2.65;;;26.60;36.50;;;;;;4979145;28;20033;-85
2021/05/05 09:02:09;;;;;;;7.15;2.67;;;26.60;37.00;;;;;;4978667;28;20027;-87
2021/05/05 09:04:36;;;;;;;4.95;2.50;;;26.70;36.60;;;;;;4978163;28;20027;-86
2021/05/05 09:07:02;;;;;;;5.75;2.53;;;26.80;36.60;;;;;;4977810;28;20023;-85
2021/05/05 09:09:33;;;;;;;6.30;2.63;;;26.90;36.50;;;;;;4978429;28;20086;-86
2021/05/05 09:12:09;;;;;;;20.52;2.80;;;27.00;36.30;;;;;;4985634;28;20062;-87
2021/05/05 09:14:35;;;;;;;9.68;3.05;;;27.00;36.20;;;;;;4980184;28;20109;-81
2021/05/05 09:17:00;;;;;;;11.15;2.85;;;26.90;36.00;;;;;;4975609;28;20102;-83
2021/05/05 09:19:26;;;;;;;8.60;2.75;;;26.60;36.00;;;;;;4975628;28;20023;-85
2021/05/05 09:21:52;;;;;;;6.55;2.63;;;26.60;36.40;;;;;;4975596;28;20190;-84
2021/05/05 09:24:26;;;;;;;6.60;2.63;;;26.60;36.50;;;;;;4976463;28;20027;-84
2021/05/05 09:27:02;;;;;;;6.82;2.60;;;26.50;36.40;;;;;;4974518;28;20079;-83
2021/05/05 09:29:43;;;;;;;7.60;2.95;;;26.40;36.50;;;;;;4978292;28;20023;-83
2021/05/05 09:32:14;;;;;;;16.88;3.47;;;26.20;36.50;;;;;;4976182;28;20027;-83
2021/05/05 09:34:40;;;;;;;15.88;3.20;;;26.10;36.60;;;;;;4976354;28;20026;-83
2021/05/05 09:37:09;;;;;;;8.10;2.80;;;25.90;36.70;;;;;;4976216;28;20747;-84
2021/05/05 09:39:43;;;;;;;8.93;2.72;;;25.80;36.90;;;;;;4975249;28;20496;-86
2021/05/05 09:42:18;;;;;;;6.72;2.55;;;25.80;37.10;;;;;;4976074;28;20085;-83
2021/05/05 09:45:13;;;;;;;8.35;2.85;;;25.60;37.10;;;;;;4974357;28;20022;-84
2021/05/05 09:47:52;;;;;;;9.55;2.80;;;25.40;37.30;;;;;;4971969;28;20427;-84
2021/05/05 09:50:30;;;;;;;6.75;3.13;;;25.20;37.80;;;;;;4975626;28;20030;-84
2021/05/05 09:53:33;;;;;;;7.00;2.75;;;25.20;38.30;;;;;;4975939;28;20030;-84
2021/05/05 09:55:59;;;;;;;10.25;2.90;;;25.20;37.90;;;;;;4978067;28;20027;-84
2021/05/05 09:58:24;;;;;;;8.43;3.00;;;25.20;37.80;;;;;;4977210;28;20023;-87
2021/05/05 10:01:15;;;;;;;5.10;2.72;;;25.00;37.70;;;;;;4974815;28;20088;-84
2021/05/05 10:03:48;;;;;;;8.73;3.10;;;24.80;38.10;;;;;;4973425;28;20035;-87
2021/05/05 10:06:25;;;;;;;3.78;2.60;;;24.60;38.30;;;;;;4976790;28;20022;-84
2021/05/05 10:08:52;;;;;;;16.50;3.03;;;24.50;38.60;;;;;;4978452;28;20034;-83
2021/05/05 10:11:24;;;;;;;12.63;2.80;;;24.30;39.00;;;;;;4979364;28;20041;-83
2021/05/05 10:13:51;;;;;;;;;;;24.40;39.30;;;;;;4978813;28;20023;-82
2021/05/05 10:16:18;;;;;;;10.00;2.90;;;24.30;39.10;;;;;;4975878;28;19911;-84
2021/05/05 10:18:46;;;;;;;16.30;3.08;;;24.30;39.30;;;;;;4975680;28;20045;-84
2021/05/05 10:21:14;;;;;;;7.82;2.58;;;24.30;39.40;;;;;;4976435;28;20077;-84
2021/05/05 10:23:42;;;;;;;6.68;3.50;;;24.40;39.60;;;;;;4976078;28;20899;-83
2021/05/05 10:26:08;;;;;;;6.38;2.70;;;24.50;39.80;;;;;;4974037;28;20073;-83
2021/05/05 10:28:34;;;;;;;5.57;2.70;;;24.50;39.40;;;;;;4974914;28;20150;-84
2021/05/05 10:31:01;;;;;;;5.53;2.42;;;24.50;39.40;;;;;;4975358;28;20023;-84
2021/05/05 10:33:28;;;;;;;5.28;2.58;;;24.60;39.50;;;;;;4974865;28;20023;-84
2021/05/05 10:35:54;;;;;;;4.75;2.80;;;24.60;39.50;;;;;;4977852;28;20093;-87
2021/05/05 10:38:33;;;;;;;8.15;2.80;;;24.60;39.30;;;;;;4976879;28;20027;-84
2021/05/05 10:41:11;;;;;;;3.35;2.33;;;24.40;39.20;;;;;;4978179;28;20384;-84
2021/05/05 10:43:51;;;;;;;9.05;2.72;;;24.40;38.80;;;;;;4980155;28;20033;-84
2021/05/05 10:46:34;;;;;;;7.97;2.83;;;24.50;39.20;;;;;;4980676;28;20019;-86
2021/05/05 10:49:08;;;;;;;9.00;2.70;;;24.60;39.10;;;;;;4976581;28;20027;-83
2021/05/05 10:51:54;;;;;;;6.47;2.60;;;24.60;38.80;;;;;;4975418;28;20109;-82
2021/05/05 10:54:22;;;;;;;6.70;2.65;;;24.70;38.70;;;;;;4971402;28;20038;-82
2021/05/05 10:57:10;;;;;;;5.05;2.40;;;24.70;38.50;;;;;;4976758;28;20027;-82
2021/05/05 10:59:58;;;;;;;4.93;2.75;;;24.70;38.30;;;;;;4975556;28;20026;-81
2021/05/05 11:02:51;;;;;;;5.20;2.58;;;24.60;38.60;;;;;;4974112;28;20031;-82
2021/05/05 11:05:19;;;;;;;5.20;2.90;;;24.50;39.20;;;;;;4975258;28;20026;-81
2021/05/05 11:08:02;;;;;;;8.68;2.67;;;24.60;39.50;;;;;;4976507;28;20023;-82
2021/05/05 11:10:31;;;;;;;16.02;2.45;;;24.60;38.90;;;;;;4975246;28;20062;-82
2021/05/05 11:13:18;;;;;;;4.20;2.60;;;24.60;38.70;;;;;;4976236;28;20019;-82
2021/05/05 11:15:47;;;;;;;3.55;2.20;;;24.60;38.50;;;;;;4975275;28;20029;-82
2021/05/05 11:18:35;;;;;;;10.85;3.70;;;24.50;38.50;;;;;;4978005;28;20042;-83
2021/05/05 11:21:26;;;;;;;6.57;2.72;;;24.50;39.10;;;;;;4978991;28;20027;-83
2021/05/05 11:23:52;;;;;;;6.53;2.55;;;24.50;39.30;;;;;;4973854;28;20042;-83
2021/05/05 11:26:31;;;;;;;4.07;2.40;;;24.60;39.30;;;;;;4975264;28;20042;-82
2021/05/05 11:29:11;;;;;;;6.47;2.90;;;24.50;39.20;;;;;;4975018;28;20023;-80
2021/05/05 11:34:18;;;;;;;5.70;2.70;;;24.20;39.20;;;;;;4974315;28;20178;-83
2021/05/05 11:36:44;;;;;;;;;;;24.10;39.40;;;;;;4974717;28;20385;-81
2021/05/05 11:39:30;;;;;;;7.15;3.88;;;24.00;39.40;;;;;;4973034;28;19906;-81
2021/05/05 11:42:06;;;;;;;4.97;2.38;;;23.90;39.70;;;;;;4973858;28;20023;-81
2021/05/05 11:44:56;;;;;;;4.47;2.55;;;23.80;39.90;;;;;;4973196;28;20023;-82
2021/05/05 11:47:30;;;;;;;3.03;2.10;;;23.80;39.90;;;;;;4975464;28;20023;-80
2021/05/05 11:50:01;;;;;;;2.65;2.35;;;23.70;40.00;;;;;;4973469;28;20557;-83
2021/05/05 11:52:35;;;;;;;4.13;2.75;;;23.60;40.10;;;;;;4975386;28;20073;-83
2021/05/05 11:55:07;;;;;;;8.13;2.50;;;23.50;40.20;;;;;;4980246;28;20050;-82
2021/05/05 11:57:55;;;;;;;6.20;2.55;;;23.50;40.60;;;;;;4975472;28;20159;-83
2021/05/05 12:00:28;;;;;;;3.97;2.42;;;23.60;40.80;;;;;;4975671;28;20085;-84
2021/05/05 12:03:00;;;;;;;8.02;2.60;;;23.70;40.70;;;;;;4977044;28;20027;-84
2021/05/05 12:05:30;;;;;;;7.07;3.03;;;23.70;40.40;;;;;;4977305;28;20049;-85
2021/05/05 12:08:07;;;;;;;5.35;2.70;;;23.60;40.30;;;;;;4976245;28;20378;-85
2021/05/05 12:10:41;;;;;;;6.28;2.40;;;23.40;40.50;;;;;;4976815;28;20073;-86
2021/05/05 12:13:14;;;;;;;7.00;2.90;;;23.30;40.70;;;;;;4974602;28;20027;-86
2021/05/05 12:16:01;;;;;;;6.15;3.17;;;23.20;40.90;;;;;;4974718;28;20401;-84
2021/05/05 12:18:32;;;;;;;6.78;3.08;;;23.00;41.30;;;;;;4974719;28;20030;-86
2021/05/05 12:21:07;;;;;;;7.72;2.85;;;23.00;41.60;;;;;;4974123;28;20350;-85
2021/05/05 12:23:45;;;;;;;9.13;2.83;;;22.90;41.60;;;;;;4972884;28;20031;-85
2021/05/05 12:26:27;;;;;;;6.05;2.70;;;22.90;41.70;;;;;;4976529;28;20042;-85
2021/05/05 12:28:56;;;;;;;15.75;2.60;;;23.00;41.50;;;;;;4986865;28;20014;-85
2021/05/05 12:31:24;;;;;;;13.82;2.67;;;23.00;41.50;;;;;;4982207;28;20488;-84
2021/05/05 12:33:50;;;;;;;6.03;2.55;;;22.90;41.20;;;;;;4978712;28;20105;-85
2021/05/05 12:36:21;;;;;;;15.90;3.17;;;22.80;41.50;;;;;;4978317;28;20027;-85
2021/05/05 12:38:49;;;;;;;6.80;2.70;;;22.80;41.60;;;;;;4977359;28;20110;-85
2021/05/05 12:41:18;;;;;;;4.55;3.05;;;22.80;41.60;;;;;;4977675;28;20035;-83
2021/05/05 12:43:48;;;;;;;10.88;3.55;;;22.70;41.60;;;;;;4978030;28;20015;-85
2021/05/05 12:46:23;;;;;;;6.43;3.40;;;22.60;41.80;;;;;;4976124;28;20037;-86
2021/05/05 12:48:49;;;;;;;5.03;2.42;;;22.40;41.90;;;;;;4976856;28;20065;-86
2021/05/05 12:51:17;;;;;;;5.88;3.00;;;22.40;41.90;;;;;;4978703;28;20066;-84
2021/05/05 12:53:52;;;;;;;7.72;3.10;;;22.40;42.00;;;;;;4978550;28;20047;-85
2021/05/05 12:56:21;;;;;;;4.28;2.72;;;22.40;42.20;;;;;;4979285;28;20537;-86
2021/05/05 12:58:48;;;;;;;5.07;2.55;;;22.50;42.30;;;;;;4979567;28;20098;-87
2021/05/05 13:01:15;;;;;;;3.28;2.60;;;22.70;42.30;;;;;;4976257;28;20457;-86
2021/05/05 13:03:43;;;;;;;8.45;3.08;;;22.90;42.60;;;;;;4982256;28;20038;-85
2021/05/05 13:06:12;;;;;;;10.75;2.75;;;22.90;41.90;;;;;;4983616;28;20065;-85